Time;durP1;ratioP1;P1;durP2;ratioP2;P2;SDS_P1;SDS_P2;PMS_P1;PMS_P2;Temp;Humidity;BMP_temperature;BMP_pressure;BME280_temperature;BME280_humidity;BME280_pressure;Samples;Min_cycle;Max_cycle;Signal;HPM_P1;HPM_P2
2021/09/06 00:01:24;;;;;;;32.13;19.70;;;15.50;86.10;;;;;;4821714;29;20051;-74
2021/09/06 00:03:52;;;;;;;29.13;19.08;;;15.50;86.20;;;;;;4804601;29;20386;-74
2021/09/06 00:06:20;;;;;;;28.23;20.13;;;15.40;86.20;;;;;;4803796;29;20051;-74
2021/09/06 00:08:48;;;;;;;31.50;19.63;;;15.50;86.40;;;;;;4803470;29;20057;-73
2021/09/06 00:11:15;;;;;;;29.02;19.42;;;15.40;86.40;;;;;;4803578;29;20062;-74
2021/09/06 00:13:43;;;;;;;36.30;20.50;;;15.40;86.50;;;;;;4803365;29;20412;-74
2021/09/06 00:16:11;;;;;;;32.10;19.90;;;15.40;86.60;;;;;;4803412;29;20046;-74
2021/09/06 00:18:39;;;;;;;33.10;20.35;;;15.40;86.70;;;;;;4802050;29;20058;-74
2021/09/06 00:21:06;;;;;;;29.20;19.17;;;15.30;86.70;;;;;;4803396;29;20059;-74
2021/09/06 00:23:36;;;;;;;26.45;18.38;;;15.30;86.70;;;;;;4802826;29;20050;-74
2021/09/06 00:26:04;;;;;;;27.90;18.42;;;15.30;86.80;;;;;;4802969;29;20074;-74
2021/09/06 00:28:32;;;;;;;26.02;18.85;;;15.30;86.80;;;;;;4803299;29;20051;-74
2021/09/06 00:31:00;;;;;;;28.92;18.60;;;15.30;86.80;;;;;;4802762;29;20057;-74
2021/09/06 00:33:28;;;;;;;28.92;18.73;;;15.30;86.90;;;;;;4803023;29;20544;-74
2021/09/06 00:35:57;;;;;;;33.22;20.90;;;15.30;86.90;;;;;;4787977;29;20058;-74
2021/09/06 00:38:25;;;;;;;36.78;20.05;;;15.30;86.90;;;;;;4788066;29;20493;-74
2021/09/06 00:40:53;;;;;;;34.13;20.17;;;15.30;87.00;;;;;;4803371;29;20063;-74
2021/09/06 00:43:20;;;;;;;37.33;19.98;;;15.30;87.00;;;;;;4802943;29;20057;-74
2021/09/06 00:45:49;;;;;;;33.00;20.48;;;15.40;86.90;;;;;;4802418;29;20050;-74
2021/09/06 00:48:18;;;;;;;32.72;19.90;;;15.40;87.00;;;;;;4802638;29;20359;-73
2021/09/06 00:50:47;;;;;;;31.38;20.83;;;15.50;87.00;;;;;;4803260;29;20057;-73
2021/09/06 00:53:15;;;;;;;31.60;19.65;;;15.50;87.00;;;;;;4802191;29;20085;-74
2021/09/06 00:55:44;;;;;;;35.25;21.73;;;15.50;86.90;;;;;;4802958;29;20051;-74
2021/09/06 00:58:13;;;;;;;33.83;20.40;;;15.70;86.80;;;;;;4802404;29;20042;-73
2021/09/06 01:00:42;;;;;;;31.83;19.60;;;15.60;86.80;;;;;;4823190;29;20508;-74
2021/09/06 01:03:10;;;;;;;33.10;21.15;;;15.70;86.80;;;;;;4817442;29;20062;-73
2021/09/06 01:05:39;;;;;;;36.13;19.65;;;15.70;86.80;;;;;;4802372;29;20417;-74
2021/09/06 01:08:23;;;;;;;31.63;20.20;;;15.70;86.80;;;;;;4802301;29;20039;-73
2021/09/06 01:11:23;;;;;;;29.95;19.90;;;15.80;86.80;;;;;;4796296;29;20417;-73
2021/09/06 01:14:09;;;;;;;31.55;19.98;;;15.80;86.70;;;;;;4804778;29;20062;-74
2021/09/06 01:16:39;;;;;;;35.63;21.20;;;15.80;86.60;;;;;;4802610;29;20129;-73
2021/09/06 01:19:08;;;;;;;30.80;21.02;;;15.80;86.60;;;;;;4786835;29;20055;-73
2021/09/06 01:21:38;;;;;;;30.70;20.40;;;15.80;86.60;;;;;;4802076;29;20047;-74
2021/09/06 01:24:24;;;;;;;32.53;20.70;;;15.80;86.60;;;;;;4803663;29;20055;-73
2021/09/06 01:26:54;;;;;;;35.15;20.73;;;15.90;86.60;;;;;;4819393;29;20051;-73
2021/09/06 01:29:25;;;;;;;36.08;21.00;;;15.90;86.60;;;;;;4805299;29;20055;-73
2021/09/06 01:31:54;;;;;;;37.58;21.25;;;15.90;86.60;;;;;;4799462;29;20051;-73
2021/09/06 01:34:21;;;;;;;34.28;21.40;;;15.90;86.60;;;;;;4819051;29;20074;-74
2021/09/06 01:36:54;;;;;;;33.50;20.67;;;15.90;86.60;;;;;;4804927;29;20059;-73
2021/09/06 01:39:22;;;;;;;35.97;21.77;;;16.00;86.60;;;;;;4806722;29;20055;-73
2021/09/06 01:41:51;;;;;;;39.08;22.77;;;15.90;86.70;;;;;;4806233;29;20051;-74
2021/09/06 01:44:18;;;;;;;37.50;21.70;;;15.90;86.70;;;;;;4807056;29;20054;-74
2021/09/06 01:46:46;;;;;;;34.03;21.50;;;15.90;86.80;;;;;;4805271;29;20051;-73
2021/09/06 01:49:13;;;;;;;33.42;22.10;;;15.90;86.80;;;;;;4789735;29;20066;-73
2021/09/06 01:51:44;;;;;;;35.17;21.17;;;15.90;86.90;;;;;;4806155;29;20051;-74
2021/09/06 01:54:13;;;;;;;36.80;22.67;;;15.90;86.90;;;;;;4805770;29;20050;-74
2021/09/06 01:56:41;;;;;;;37.25;21.55;;;15.90;87.00;;;;;;4805410;29;20070;-73
2021/09/06 01:59:12;;;;;;;39.10;21.75;;;15.80;87.00;;;;;;4804827;29;20066;-73
2021/09/06 02:01:40;;;;;;;34.25;22.42;;;15.90;87.00;;;;;;4820147;29;20058;-73
2021/09/06 02:04:08;;;;;;;32.75;21.42;;;15.80;87.10;;;;;;4805476;29;20066;-73
2021/09/06 02:06:38;;;;;;;33.47;22.05;;;15.80;87.10;;;;;;4805329;29;20055;-73
2021/09/06 02:09:06;;;;;;;32.95;21.60;;;15.80;87.20;;;;;;4804676;29;20404;-73
2021/09/06 02:11:36;;;;;;;35.25;21.75;;;15.80;87.20;;;;;;4805505;29;20067;-73
2021/09/06 02:14:06;;;;;;;34.55;23.00;;;15.80;87.30;;;;;;4804578;29;20059;-73
2021/09/06 02:16:35;;;;;;;34.22;22.33;;;15.80;87.40;;;;;;4804982;29;20058;-73
2021/09/06 02:19:08;;;;;;;44.22;23.85;;;15.80;87.40;;;;;;4815767;29;20053;-73
2021/09/06 02:21:42;;;;;;;34.78;21.38;;;15.80;87.50;;;;;;4804898;29;20062;-73
2021/09/06 02:24:10;;;;;;;37.60;20.92;;;15.70;87.60;;;;;;4805709;29;20051;-73
2021/09/06 02:26:38;;;;;;;33.55;20.40;;;15.70;87.70;;;;;;4804808;29;20043;-74
2021/09/06 02:29:10;;;;;;;34.85;20.63;;;15.70;87.70;;;;;;4804996;29;20047;-73
2021/09/06 02:31:46;;;;;;;25.00;17.98;;;15.60;87.80;;;;;;4803013;29;20062;-73
2021/09/06 02:34:32;;;;;;;34.22;18.42;;;15.60;87.90;;;;;;4821337;29;20043;-73
2021/09/06 02:37:00;;;;;;;36.13;23.45;;;15.60;87.90;;;;;;4806409;29;20058;-74
2021/09/06 02:39:37;;;;;;;41.67;23.88;;;15.50;88.00;;;;;;4819978;29;20057;-74
2021/09/06 02:42:05;;;;;;;36.97;23.13;;;15.50;88.10;;;;;;4804434;29;20512;-74
2021/09/06 02:44:35;;;;;;;40.40;24.30;;;15.50;88.10;;;;;;4804146;29;20046;-72
2021/09/06 02:47:06;;;;;;;47.45;23.98;;;15.50;88.20;;;;;;4805140;29;20524;-74
2021/09/06 02:49:34;;;;;;;41.05;24.92;;;15.40;88.30;;;;;;4804663;29;20075;-74
2021/09/06 02:52:04;;;;;;;45.58;24.70;;;15.40;88.40;;;;;;4819769;29;20047;-74
2021/09/06 02:54:32;;;;;;;44.17;24.88;;;15.30;88.50;;;;;;4819507;29;20251;-74
2021/09/06 02:56:59;;;;;;;41.30;23.38;;;15.30;88.70;;;;;;4815815;29;20424;-73
2021/09/06 02:59:28;;;;;;;36.50;23.63;;;15.30;88.80;;;;;;4804212;29;20049;-74
2021/09/06 03:01:56;;;;;;;39.03;23.92;;;15.20;89.00;;;;;;4788380;29;20054;-74
2021/09/06 03:04:28;;;;;;;42.60;24.73;;;15.20;89.00;;;;;;4804810;29;20051;-74
2021/09/06 03:06:57;;;;;;;40.87;25.10;;;15.20;89.10;;;;;;4819633;29;20071;-74
2021/09/06 03:09:25;;;;;;;42.50;24.42;;;15.20;89.10;;;;;;4789256;29;20302;-74
2021/09/06 03:11:53;;;;;;;39.60;23.75;;;15.10;89.20;;;;;;4803378;29;20047;-74
2021/09/06 03:14:21;;;;;;;37.88;24.98;;;15.10;89.20;;;;;;4810709;29;20050;-74
2021/09/06 03:16:52;;;;;;;38.38;24.88;;;15.10;89.20;;;;;;4804512;29;20051;-74
2021/09/06 03:19:20;;;;;;;50.55;25.88;;;15.10;89.30;;;;;;4802318;29;20482;-73
2021/09/06 03:21:54;;;;;;;39.47;22.77;;;15.00;89.40;;;;;;4804249;29;20042;-74
2021/09/06 03:24:23;;;;;;;46.45;26.15;;;15.00;89.40;;;;;;4804452;29;20058;-74
2021/09/06 03:26:51;;;;;;;42.88;26.83;;;15.00;89.50;;;;;;4800705;29;20055;-74
2021/09/06 03:29:19;;;;;;;50.60;27.38;;;15.00;89.60;;;;;;4818551;29;20047;-73
2021/09/06 03:31:47;;;;;;;37.15;23.45;;;15.00;89.70;;;;;;4786082;30;20520;-73
2021/09/06 03:34:16;;;;;;;51.58;27.27;;;14.90;89.70;;;;;;4817402;29;20047;-74
2021/09/06 03:36:46;;;;;;;47.00;26.38;;;14.90;89.70;;;;;;4818966;29;20043;-74
2021/09/06 03:39:19;;;;;;;47.92;27.42;;;14.90;89.80;;;;;;4803526;29;20051;-74
2021/09/06 03:41:47;;;;;;;48.33;27.25;;;14.90;90.00;;;;;;4818635;29;20078;-74
2021/09/06 03:44:19;;;;;;;53.42;27.45;;;14.90;90.00;;;;;;4818822;29;20038;-74
2021/09/06 03:46:48;;;;;;;46.65;26.20;;;14.90;90.10;;;;;;4818677;29;20047;-74
2021/09/06 03:49:15;;;;;;;49.33;26.35;;;14.90;90.10;;;;;;4803583;29;20075;-74
2021/09/06 03:51:46;;;;;;;44.47;25.75;;;14.80;90.10;;;;;;4818503;29;20070;-74
2021/09/06 03:54:17;;;;;;;44.00;25.17;;;14.80;90.10;;;;;;4819039;29;20110;-74
2021/09/06 03:56:45;;;;;;;40.85;24.70;;;14.80;90.20;;;;;;4816625;29;20045;-73
2021/09/06 03:59:12;;;;;;;43.55;26.02;;;14.70;90.20;;;;;;4803611;29;20054;-74
2021/09/06 04:01:44;;;;;;;52.38;26.60;;;14.70;90.20;;;;;;4788740;29;20382;-74
2021/09/06 04:04:14;;;;;;;45.10;25.65;;;14.60;90.30;;;;;;4802563;29;20515;-73
2021/09/06 04:06:43;;;;;;;41.20;24.83;;;14.60;90.30;;;;;;4800994;29;20517;-73
2021/09/06 04:09:15;;;;;;;38.70;24.90;;;14.60;90.40;;;;;;4788067;29;20050;-74
2021/09/06 04:11:43;;;;;;;40.65;24.80;;;14.60;90.40;;;;;;4799039;29;20051;-74
2021/09/06 04:14:15;;;;;;;45.33;25.75;;;14.60;90.40;;;;;;4800936;29;20461;-74
2021/09/06 04:16:44;;;;;;;46.15;26.02;;;14.60;90.40;;;;;;4803828;29;20088;-74
2021/09/06 04:19:14;;;;;;;41.70;23.98;;;14.50;90.40;;;;;;4818300;29;20055;-74
2021/09/06 04:21:44;;;;;;;38.45;23.65;;;14.50;90.50;;;;;;4799759;29;20059;-74
2021/09/06 04:24:14;;;;;;;49.03;26.75;;;14.40;90.60;;;;;;4817979;29;20058;-74
2021/09/06 04:26:41;;;;;;;57.95;29.70;;;14.40;90.60;;;;;;4818242;29;20053;-74
2021/09/06 04:29:09;;;;;;;52.10;27.25;;;14.30;90.70;;;;;;4803171;29;20058;-74
2021/09/06 04:31:37;;;;;;;39.70;24.35;;;14.30;90.80;;;;;;4802874;29;20055;-74
2021/09/06 04:34:05;;;;;;;45.10;26.40;;;14.30;90.90;;;;;;4803053;29;20050;-74
2021/09/06 04:36:36;;;;;;;52.00;27.25;;;14.30;90.90;;;;;;4802665;29;20066;-74
2021/09/06 04:39:06;;;;;;;55.50;27.83;;;14.30;91.00;;;;;;4803921;29;20516;-74
2021/09/06 04:41:40;;;;;;;62.92;31.70;;;14.30;91.00;;;;;;4817420;29;20417;-74
2021/09/06 04:44:09;;;;;;;55.60;29.10;;;14.20;91.00;;;;;;4804030;29;20055;-74
2021/09/06 04:46:37;;;;;;;50.90;27.90;;;14.30;91.10;;;;;;4803316;29;20042;-74
2021/09/06 04:49:05;;;;;;;50.97;27.98;;;14.30;91.10;;;;;;4803430;29;20063;-74
2021/09/06 04:51:33;;;;;;;48.50;27.85;;;14.30;91.10;;;;;;4804641;29;20047;-74
2021/09/06 04:54:01;;;;;;;50.92;27.52;;;14.30;91.10;;;;;;4802384;29;20069;-74
2021/09/06 04:56:29;;;;;;;54.00;28.10;;;14.30;91.20;;;;;;4817048;29;20062;-74
2021/09/06 04:59:01;;;;;;;46.45;26.10;;;14.30;91.20;;;;;;4802396;29;20395;-73
2021/09/06 05:01:29;;;;;;;55.78;27.75;;;14.30;91.20;;;;;;4803157;29;20062;-73
2021/09/06 05:03:58;;;;;;;61.63;29.15;;;14.30;91.20;;;;;;4805765;29;20051;-74
2021/09/06 05:06:26;;;;;;;48.78;26.70;;;14.20;91.20;;;;;;4805651;29;20051;-74
2021/09/06 05:08:57;;;;;;;40.83;24.88;;;14.30;91.20;;;;;;4806516;29;20512;-74
2021/09/06 05:11:25;;;;;;;38.38;23.45;;;14.30;91.30;;;;;;4805869;29;20051;-74
2021/09/06 05:13:56;;;;;;;34.67;21.10;;;14.20;91.30;;;;;;4821155;29;20057;-74
2021/09/06 05:16:25;;;;;;;48.17;26.23;;;14.20;91.20;;;;;;4806064;29;20051;-74
2021/09/06 05:18:53;;;;;;;52.55;26.40;;;14.20;91.20;;;;;;4821153;29;20050;-74
2021/09/06 05:21:20;;;;;;;51.90;25.85;;;14.20;91.20;;;;;;4807272;29;20062;-74
2021/09/06 05:23:48;;;;;;;50.25;26.05;;;14.20;91.30;;;;;;4807048;29;20051;-74
2021/09/06 05:26:17;;;;;;;44.15;25.55;;;14.20;91.30;;;;;;4806523;29;20073;-74
2021/09/06 05:28:47;;;;;;;49.50;25.73;;;14.10;91.30;;;;;;4806688;29;20059;-74
2021/09/06 05:31:15;;;;;;;40.17;24.17;;;14.10;91.30;;;;;;4797882;29;20066;-74
2021/09/06 05:33:45;;;;;;;43.10;25.42;;;14.10;91.30;;;;;;4817635;29;20062;-73
2021/09/06 05:36:13;;;;;;;50.45;28.48;;;14.10;91.30;;;;;;4806929;29;20062;-74
2021/09/06 05:38:43;;;;;;;61.88;31.27;;;14.10;91.40;;;;;;4822453;29;20517;-74
2021/09/06 05:41:35;;;;;;;60.15;30.33;;;14.10;91.40;;;;;;4793556;29;20063;-74
2021/09/06 05:44:05;;;;;;;63.22;31.92;;;14.00;91.40;;;;;;4783190;29;20079;-75
2021/09/06 05:46:33;;;;;;;50.58;24.70;;;14.00;91.40;;;;;;4786570;30;20067;-73
2021/09/06 05:49:03;;;;;;;51.45;27.92;;;14.00;91.50;;;;;;4785982;30;20184;-73
2021/09/06 05:51:33;;;;;;;60.35;31.25;;;14.00;91.50;;;;;;4786560;29;20058;-73
2021/09/06 05:54:13;;;;;;;65.63;31.75;;;14.00;91.60;;;;;;4786801;30;20160;-73
2021/09/06 05:56:40;;;;;;;57.90;29.80;;;14.00;91.60;;;;;;4786384;29;20070;-73
2021/09/06 05:59:08;;;;;;;64.72;31.83;;;14.00;91.70;;;;;;4801297;29;20476;-73
2021/09/06 06:01:37;;;;;;;68.55;33.40;;;14.00;91.70;;;;;;4787456;29;20390;-73
2021/09/06 06:04:05;;;;;;;64.75;31.42;;;14.00;91.70;;;;;;4791819;29;20055;-74
2021/09/06 06:06:36;;;;;;;51.72;28.60;;;14.00;91.80;;;;;;4800664;29;20588;-73
2021/09/06 06:09:05;;;;;;;68.47;33.55;;;14.00;91.80;;;;;;4795070;29;20054;-74
2021/09/06 06:11:38;;;;;;;63.15;32.15;;;14.00;91.80;;;;;;4789355;29;20059;-74
2021/09/06 06:14:11;;;;;;;59.15;33.20;;;14.00;91.70;;;;;;4772106;30;20055;-72
2021/09/06 06:16:39;;;;;;;72.03;32.55;;;14.00;91.70;;;;;;4801111;29;20051;-73
2021/09/06 06:19:07;;;;;;;67.38;32.88;;;14.10;91.70;;;;;;4799379;29;20067;-73
2021/09/06 06:21:55;;;;;;;69.15;33.35;;;14.10;91.60;;;;;;4814609;29;20059;-74
2021/09/06 06:24:38;;;;;;;;;;;14.10;91.60;;;;;;4795812;29;20051;-73
2021/09/06 06:27:32;;;;;;;65.07;32.20;;;14.20;91.60;;;;;;4816543;29;19925;-73
2021/09/06 06:30:00;;;;;;;74.63;32.33;;;14.20;91.40;;;;;;4805912;29;20046;-73
2021/09/06 06:32:28;;;;;;;77.03;33.28;;;14.20;91.40;;;;;;4806411;29;20042;-73
2021/09/06 06:35:07;;;;;;;80.75;33.13;;;14.20;91.50;;;;;;4805620;29;20054;-73
2021/09/06 06:37:36;;;;;;;73.47;31.85;;;14.20;91.50;;;;;;4805304;29;20049;-73
2021/09/06 06:40:04;;;;;;;111.45;34.33;;;14.20;91.50;;;;;;4805551;29;20456;-73
2021/09/06 06:42:36;;;;;;;104.47;35.40;;;14.30;91.60;;;;;;4805520;29;20050;-73
2021/09/06 06:45:08;;;;;;;101.97;32.35;;;14.30;91.60;;;;;;4804679;29;20055;-73
2021/09/06 06:47:38;;;;;;;114.32;34.92;;;14.30;91.60;;;;;;4820042;29;20409;-73
2021/09/06 06:50:06;;;;;;;99.85;32.88;;;14.30;91.60;;;;;;4805243;29;20055;-73
2021/09/06 06:52:37;;;;;;;91.65;32.60;;;14.30;91.60;;;;;;4804932;29;20050;-73
2021/09/06 06:55:07;;;;;;;100.47;34.08;;;14.40;91.60;;;;;;4805072;29;20409;-73
2021/09/06 06:57:36;;;;;;;128.27;35.20;;;14.40;91.60;;;;;;4805074;29;20536;-73
2021/09/06 07:00:06;;;;;;;166.50;33.13;;;14.50;91.60;;;;;;4805050;29;20051;-73
2021/09/06 07:02:36;;;;;;;146.23;31.67;;;14.60;91.50;;;;;;4819863;29;20043;-73
2021/09/06 07:05:07;;;;;;;50.88;27.27;;;14.60;91.50;;;;;;4819772;29;20054;-73
2021/09/06 07:07:40;;;;;;;48.80;26.70;;;14.70;91.40;;;;;;4813353;29;20054;-73
2021/09/06 07:10:09;;;;;;;49.30;28.15;;;14.80;91.30;;;;;;4806903;29;20545;-73
2021/09/06 07:12:38;;;;;;;51.03;28.20;;;14.80;91.10;;;;;;4821967;29;20050;-73
2021/09/06 07:15:08;;;;;;;51.53;27.15;;;15.00;91.00;;;;;;4804878;29;20054;-73
2021/09/06 07:17:37;;;;;;;50.85;28.27;;;15.10;90.80;;;;;;4806334;29;20062;-73
2021/09/06 07:20:05;;;;;;;45.90;27.08;;;15.20;90.60;;;;;;4805629;29;20058;-73
2021/09/06 07:22:34;;;;;;;51.72;26.73;;;15.30;90.40;;;;;;4805148;29;20055;-73
2021/09/06 07:25:03;;;;;;;50.45;26.92;;;15.40;90.20;;;;;;4804093;29;20614;-73
2021/09/06 07:27:31;;;;;;;53.00;27.17;;;15.50;90.10;;;;;;4804955;29;20494;-73
2021/09/06 07:29:59;;;;;;;53.70;27.25;;;15.60;89.90;;;;;;4804377;29;20077;-73
2021/09/06 07:32:27;;;;;;;55.58;27.85;;;15.80;89.80;;;;;;4819381;29;20050;-73
2021/09/06 07:34:55;;;;;;;57.28;27.55;;;15.80;89.60;;;;;;4819304;29;20047;-73
2021/09/06 07:37:27;;;;;;;51.95;26.20;;;16.00;89.50;;;;;;4788349;29;20070;-73
2021/09/06 07:39:55;;;;;;;55.70;26.63;;;16.20;89.30;;;;;;4803555;29;20050;-73
2021/09/06 07:42:23;;;;;;;60.40;26.92;;;16.50;89.10;;;;;;4819425;29;20047;-73
2021/09/06 07:44:51;;;;;;;51.13;28.50;;;16.80;88.70;;;;;;4815002;29;20050;-73
2021/09/06 07:47:19;;;;;;;47.05;26.55;;;16.90;88.20;;;;;;4803565;29;20516;-72
2021/09/06 07:49:49;;;;;;;47.72;26.52;;;17.20;87.60;;;;;;4807221;29;20046;-73
2021/09/06 07:52:17;;;;;;;44.25;23.70;;;17.50;87.00;;;;;;4814566;29;20046;-73
2021/09/06 07:54:45;;;;;;;54.28;24.63;;;17.70;86.50;;;;;;4804230;29;20420;-73
2021/09/06 07:57:12;;;;;;;43.47;26.75;;;17.80;86.10;;;;;;4805530;29;20046;-73
2021/09/06 07:59:40;;;;;;;53.33;27.30;;;18.00;85.70;;;;;;4818931;29;20066;-73
2021/09/06 08:02:12;;;;;;;53.22;27.65;;;18.20;85.20;;;;;;4804505;29;20050;-73
2021/09/06 08:04:46;;;;;;;;;;;18.30;84.90;;;;;;4788839;29;20054;-73
2021/09/06 08:07:13;;;;;;;47.17;27.10;;;18.30;84.70;;;;;;4804000;29;19925;-74
2021/09/06 08:09:41;;;;;;;43.55;27.15;;;18.30;84.60;;;;;;4804019;29;20055;-73
2021/09/06 08:12:09;;;;;;;52.13;27.90;;;18.40;84.40;;;;;;4817207;29;20057;-73
2021/09/06 08:14:38;;;;;;;49.28;27.48;;;18.50;84.20;;;;;;4820711;29;20055;-73
2021/09/06 08:17:06;;;;;;;45.63;27.20;;;18.60;84.10;;;;;;4803554;29;20051;-73
2021/09/06 08:19:36;;;;;;;48.70;27.02;;;18.70;83.80;;;;;;4801788;29;20058;-72
2021/09/06 08:22:04;;;;;;;44.72;26.92;;;18.80;83.40;;;;;;4818566;29;20046;-73
2021/09/06 08:24:33;;;;;;;56.00;27.88;;;19.00;82.90;;;;;;4803924;29;20058;-73
2021/09/06 08:27:01;;;;;;;43.72;27.75;;;19.30;82.30;;;;;;4803897;29;20046;-73
2021/09/06 08:29:29;;;;;;;52.03;27.48;;;19.50;81.90;;;;;;4803666;29;20046;-73
2021/09/06 08:31:58;;;;;;;57.38;31.27;;;19.70;81.40;;;;;;4803589;29;20442;-73
2021/09/06 08:34:27;;;;;;;52.75;29.98;;;19.80;81.00;;;;;;4803102;29;20051;-70
2021/09/06 08:36:55;;;;;;;70.55;29.48;;;19.90;80.70;;;;;;4803740;29;20505;-72
2021/09/06 08:39:22;;;;;;;64.60;28.58;;;20.00;80.50;;;;;;4805601;29;20055;-72
2021/09/06 08:41:52;;;;;;;57.45;28.25;;;20.10;80.40;;;;;;4837377;29;20396;-70
2021/09/06 08:44:23;;;;;;;57.75;26.42;;;20.10;79.90;;;;;;4818840;29;20057;-72
2021/09/06 08:46:52;;;;;;;48.58;26.70;;;20.20;79.60;;;;;;4787792;29;20062;-72
2021/09/06 08:49:21;;;;;;;60.50;28.50;;;20.30;79.30;;;;;;4801829;29;20055;-72
2021/09/06 08:51:49;;;;;;;55.15;26.98;;;20.40;79.00;;;;;;4788458;29;20062;-72
2021/09/06 08:54:17;;;;;;;53.17;27.25;;;20.70;78.50;;;;;;4802510;29;20051;-72
2021/09/06 08:56:47;;;;;;;47.88;26.65;;;20.80;78.00;;;;;;4803465;29;20485;-72
2021/09/06 08:59:17;;;;;;;45.17;25.30;;;21.00;77.60;;;;;;4803184;29;20059;-73
2021/09/06 09:01:48;;;;;;;55.85;30.23;;;21.20;77.20;;;;;;4807923;29;20046;-72
2021/09/06 09:04:38;;;;;;;45.55;28.25;;;21.40;76.70;;;;;;4785007;29;20059;-72
2021/09/06 09:07:25;;;;;;;41.58;25.67;;;21.60;76.30;;;;;;4831874;29;20059;-72
2021/09/06 09:10:27;;;;;;;41.40;25.42;;;21.80;75.60;;;;;;4788020;29;20401;-72
2021/09/06 09:13:13;;;;;;;42.30;26.40;;;21.80;75.10;;;;;;4786927;30;20059;-73
2021/09/06 09:16:00;;;;;;;38.25;25.58;;;22.00;74.80;;;;;;4786505;30;20064;-72
2021/09/06 09:19:06;;;;;;;37.80;24.88;;;22.10;74.50;;;;;;4806224;29;20061;-72
2021/09/06 09:22:05;;;;;;;39.67;26.92;;;22.30;74.10;;;;;;4802966;29;20058;-72
2021/09/06 09:24:57;;;;;;;41.10;25.95;;;22.50;73.60;;;;;;4802969;29;20066;-72
2021/09/06 09:27:44;;;;;;;40.70;26.67;;;22.70;73.10;;;;;;4803648;29;20054;-72
2021/09/06 09:30:28;;;;;;;39.60;26.00;;;22.80;72.30;;;;;;4811134;29;20425;-72
2021/09/06 09:33:16;;;;;;;40.85;28.40;;;22.90;72.00;;;;;;4821778;29;20378;-72
2021/09/06 09:35:59;;;;;;;37.08;26.27;;;23.00;71.80;;;;;;4806948;29;20047;-72
2021/09/06 09:38:37;;;;;;;41.43;26.40;;;23.00;71.60;;;;;;4804383;29;20051;-78
2021/09/06 09:41:13;;;;;;;48.40;25.80;;;23.10;71.50;;;;;;4806215;29;20302;-72
2021/09/06 09:43:42;;;;;;;37.97;25.73;;;23.20;71.00;;;;;;4804694;29;20050;-72
2021/09/06 09:46:20;;;;;;;40.33;26.52;;;23.20;70.90;;;;;;4803076;29;20070;-72
2021/09/06 09:49:09;;;;;;;41.72;25.70;;;23.20;71.00;;;;;;4790778;29;20078;-73
2021/09/06 09:51:37;;;;;;;40.13;27.00;;;23.30;70.80;;;;;;4807748;29;20051;-73
2021/09/06 09:54:06;;;;;;;46.30;28.85;;;23.30;70.70;;;;;;4806336;29;20066;-72
2021/09/06 09:56:34;;;;;;;42.05;27.85;;;23.50;70.60;;;;;;4807481;29;20052;-71
2021/09/06 09:59:03;;;;;;;38.50;27.63;;;23.50;70.40;;;;;;4807784;29;20062;-71
2021/09/06 10:01:39;;;;;;;41.13;27.63;;;23.60;70.10;;;;;;4820838;29;20055;-72
2021/09/06 10:04:11;;;;;;;43.95;28.90;;;23.50;70.10;;;;;;4807673;29;20050;-72
2021/09/06 10:06:42;;;;;;;39.47;27.58;;;23.30;70.50;;;;;;4807427;29;20148;-72
2021/09/06 10:09:13;;;;;;;43.83;29.73;;;23.30;70.80;;;;;;4807598;29;20049;-72
2021/09/06 10:11:42;;;;;;;49.70;30.92;;;23.20;70.90;;;;;;4807572;29;20046;-71
2021/09/06 10:14:26;;;;;;;46.53;31.05;;;23.00;71.10;;;;;;4807059;29;20150;-71
2021/09/06 10:17:02;;;;;;;49.38;30.08;;;22.90;71.40;;;;;;4809237;29;20073;-72
2021/09/06 10:19:42;;;;;;;45.83;31.45;;;22.80;71.70;;;;;;4824447;29;20204;-72
2021/09/06 10:22:29;;;;;;;46.42;29.95;;;22.70;72.20;;;;;;4825537;29;20054;-72
2021/09/06 10:25:06;;;;;;;49.28;31.52;;;22.60;72.40;;;;;;4825255;29;20058;-73
2021/09/06 10:27:37;;;;;;;50.95;32.45;;;22.70;72.30;;;;;;4825154;29;20057;-72
2021/09/06 10:30:08;;;;;;;51.97;32.30;;;22.70;72.20;;;;;;4825202;29;20058;-72
2021/09/06 10:32:41;;;;;;;47.47;31.45;;;22.60;72.30;;;;;;4825210;29;20050;-72
2021/09/06 10:35:19;;;;;;;50.80;32.00;;;22.60;72.50;;;;;;4825312;29;20046;-72
2021/09/06 10:38:10;;;;;;;49.17;31.88;;;22.60;72.70;;;;;;4824923;29;20059;-73
2021/09/06 10:40:45;;;;;;;46.38;30.48;;;22.50;72.60;;;;;;4824001;29;20058;-73
2021/09/06 10:43:21;;;;;;;44.42;30.65;;;22.40;72.80;;;;;;4825111;29;20053;-72
2021/09/06 10:45:51;;;;;;;50.78;31.10;;;22.20;73.00;;;;;;4825061;29;20058;-73
2021/09/06 10:48:24;;;;;;;45.95;31.33;;;22.20;73.40;;;;;;4838686;29;20065;-72
2021/09/06 10:50:53;;;;;;;47.78;30.60;;;22.30;73.70;;;;;;4838838;29;20058;-73
2021/09/06 10:53:23;;;;;;;45.70;30.50;;;22.30;73.80;;;;;;4825006;29;20055;-73
2021/09/06 10:55:54;;;;;;;49.65;31.52;;;22.60;73.80;;;;;;4838644;29;20050;-73
2021/09/06 10:58:25;;;;;;;49.42;30.00;;;22.90;73.10;;;;;;4824023;29;20050;-71
2021/09/06 11:01:00;;;;;;;43.80;30.77;;;23.20;72.10;;;;;;4824610;29;20054;-71
2021/09/06 11:03:36;;;;;;;48.88;29.25;;;23.50;71.30;;;;;;4824743;29;20054;-71
2021/09/06 11:06:06;;;;;;;50.88;29.15;;;23.90;70.60;;;;;;4823108;29;20520;-71
2021/09/06 11:08:37;;;;;;;39.65;27.67;;;24.40;69.10;;;;;;4822907;29;20062;-71
2021/09/06 11:11:09;;;;;;;39.75;27.67;;;24.80;67.50;;;;;;4824769;29;20405;-71
2021/09/06 11:13:44;;;;;;;;;;;25.00;66.40;;;;;;4824900;29;20047;-71
2021/09/06 11:16:17;;;;;;;41.53;28.15;;;25.00;65.40;;;;;;4824707;29;19925;-71
2021/09/06 11:18:50;;;;;;;45.78;28.27;;;24.90;65.80;;;;;;4808497;29;20073;-71
2021/09/06 11:21:20;;;;;;;46.60;29.95;;;24.90;66.00;;;;;;4806495;29;20046;-71
2021/09/06 11:23:51;;;;;;;46.78;29.60;;;24.80;65.90;;;;;;4806243;29;20054;-72
2021/09/06 11:26:28;;;;;;;42.60;28.55;;;24.90;66.10;;;;;;4820036;29;20047;-72
2021/09/06 11:28:57;;;;;;;39.35;27.92;;;25.10;65.80;;;;;;4806150;29;20051;-72
2021/09/06 11:31:27;;;;;;;40.28;27.40;;;25.40;65.20;;;;;;4819133;29;20501;-72
2021/09/06 11:34:06;;;;;;;45.22;28.40;;;25.70;64.60;;;;;;4806232;29;20418;-72
2021/09/06 11:36:34;;;;;;;39.60;27.35;;;25.70;64.20;;;;;;4805046;29;20405;-73
2021/09/06 11:39:06;;;;;;;35.95;25.13;;;25.60;63.60;;;;;;4805367;29;20054;-72
2021/09/06 11:41:39;;;;;;;41.05;27.42;;;25.40;63.70;;;;;;4804103;29;20062;-72
2021/09/06 11:44:08;;;;;;;39.17;27.73;;;25.40;63.70;;;;;;4804944;29;20497;-72
2021/09/06 11:46:41;;;;;;;40.53;27.45;;;25.20;63.70;;;;;;4805962;29;20062;-71
2021/09/06 11:49:09;;;;;;;39.08;26.52;;;25.00;64.30;;;;;;4805549;29;20058;-71
2021/09/06 11:51:36;;;;;;;39.53;28.33;;;25.10;64.60;;;;;;4819426;29;20061;-72
2021/09/06 11:54:04;;;;;;;41.65;27.67;;;25.20;64.60;;;;;;4819764;29;20046;-72
2021/09/06 11:56:31;;;;;;;41.53;29.30;;;25.10;64.70;;;;;;4805579;29;20058;-71
2021/09/06 11:59:01;;;;;;;40.28;27.58;;;25.20;64.40;;;;;;4803873;29;20059;-72
2021/09/06 12:01:29;;;;;;;37.05;25.90;;;25.20;64.10;;;;;;4804531;29;20054;-72
2021/09/06 12:04:09;;;;;;;38.22;26.65;;;25.30;64.10;;;;;;4805538;29;20070;-72
2021/09/06 12:06:38;;;;;;;55.97;26.30;;;25.50;63.50;;;;;;4805466;29;20055;-72
2021/09/06 12:09:07;;;;;;;39.17;25.40;;;25.80;63.30;;;;;;4805218;29;20058;-72
2021/09/06 12:11:55;;;;;;;36.00;23.92;;;26.10;62.70;;;;;;4804950;29;20058;-72
2021/09/06 12:14:24;;;;;;;34.80;23.73;;;26.60;61.80;;;;;;4804692;29;20382;-73
2021/09/06 12:16:59;;;;;;;47.45;23.42;;;27.20;60.70;;;;;;4807084;29;20062;-73
2021/09/06 12:19:27;;;;;;;29.55;21.73;;;27.80;59.00;;;;;;4823547;29;20069;-73
2021/09/06 12:21:55;;;;;;;31.25;20.70;;;28.50;57.30;;;;;;4837643;29;20058;-73
2021/09/06 12:24:24;;;;;;;31.45;20.35;;;29.00;55.30;;;;;;4823477;29;20425;-73
2021/09/06 12:26:53;;;;;;;33.38;20.30;;;29.40;54.00;;;;;;4823579;29;20050;-71
2021/09/06 12:29:28;;;;;;;28.45;20.00;;;29.80;53.00;;;;;;4823314;29;20047;-72
2021/09/06 12:31:56;;;;;;;38.50;18.98;;;29.90;51.00;;;;;;4823793;29;20062;-72
2021/09/06 12:34:25;;;;;;;29.75;18.67;;;30.20;50.90;;;;;;4823480;29;20061;-72
2021/09/06 12:36:59;;;;;;;25.00;18.65;;;30.60;50.10;;;;;;4823527;29;20408;-72
2021/09/06 12:39:33;;;;;;;36.00;18.25;;;30.90;48.60;;;;;;4823126;29;20058;-72
2021/09/06 12:42:02;;;;;;;24.05;19.17;;;30.80;47.10;;;;;;4811711;29;20046;-72
2021/09/06 12:44:33;;;;;;;29.27;19.33;;;30.40;47.60;;;;;;4801636;29;20053;-72
2021/09/06 12:47:05;;;;;;;25.10;18.73;;;30.30;48.20;;;;;;4803752;29;20039;-72
2021/09/06 12:49:33;;;;;;;28.00;17.40;;;30.20;48.70;;;;;;4801544;29;20054;-73